• Join FlightAware (Why Join?)
  • Login
  • US Flag GB Flag 
13:03 EDT


 

Airport Tracker/Info


-or-


 

Live Flight TrackerFlight Track Log ✈ IBE3329 ✈ 18-Apr-2013 ✈ GOOY / DKR - LEMD / MAD

Flight Track Log - Related Links

Times and Time Zones

All times are in EDT time to prevent confusion due to time zone crossing. See the IBE3329 flight status page for this flight to view local times or setup timezone preferences in your user account.

Time Position Orientation Groundspeed Altitude Reporting Facility
EDT Latitude Longitude Course Direction KTS MPH feet Rate Location/Type
19:24 21.2630 -14.5776 23° Northeast  Level Estimated
19:25 21.3750 -14.5253 23° Northeast  Level Estimated
19:26 21.4870 -14.4730 23° Northeast  Level Estimated
19:27 21.5991 -14.4206 24° Northeast  Level Estimated
19:28 21.7111 -14.3680 24° Northeast  Level Estimated
19:29 21.8231 -14.3155 24° Northeast  Level Estimated
19:30 21.9350 -14.2628 24° Northeast  Level Estimated
19:31 22.0470 -14.2100 24° Northeast  Level Estimated
19:32 22.1589 -14.1572 24° Northeast  Level Estimated
19:33 22.2709 -14.1043 24° Northeast  Level Estimated
19:34 22.3828 -14.0513 24° Northeast  Level Estimated
19:35 22.4947 -13.9982 24° Northeast  Level Estimated
19:36 22.6065 -13.9450 24° Northeast  Level Estimated
19:37 22.7184 -13.8918 24° Northeast  Level Estimated
19:38 22.8302 -13.8384 24° Northeast  Level Estimated
19:39 22.9420 -13.7850 24° Northeast  Level Estimated
19:40 23.0538 -13.7314 24° Northeast  Level Estimated
19:41 23.1656 -13.6778 24° Northeast  Level Estimated
19:42 23.2774 -13.6241 24° Northeast  Level Estimated
19:43 23.3891 -13.5703 24° Northeast  Level Estimated
19:44 23.5009 -13.5164 24° Northeast  Level Estimated
19:45 23.6126 -13.4625 24° Northeast  Level Estimated
19:46 23.7243 -13.4084 24° Northeast  Level Estimated
19:47 23.8359 -13.3542 24° Northeast  Level Estimated
19:48 23.9476 -13.3000 24° Northeast  Level Estimated
19:49 24.0592 -13.2456 24° Northeast  Level Estimated
19:50 24.1708 -13.1912 24° Northeast  Level Estimated
19:51 24.2824 -13.1366 24° Northeast  Level Estimated
19:52 24.3940 -13.0820 24° Northeast  Level Estimated
19:53 24.5056 -13.0273 24° Northeast  Level Estimated
19:54 24.6171 -12.9725 24° Northeast  Level Estimated
19:55 24.7286 -12.9175 24° Northeast  Level Estimated
19:56 24.8401 -12.8625 24° Northeast  Level Estimated
19:57 24.9516 -12.8074 24° Northeast  Level Estimated
19:58 25.0631 -12.7521 24° Northeast  Level Estimated
19:59 25.1745 -12.6968 24° Northeast  Level Estimated
20:00 25.2859 -12.6414 24° Northeast  Level Estimated
20:01 25.3973 -12.5859 24° Northeast  Level Estimated
20:02 25.5087 -12.5302 24° Northeast  Level Estimated
20:03 25.6200 -12.4745 24° Northeast  Level Estimated
20:04 25.7313 -12.4187 24° Northeast  Level Estimated
20:04 25.3390 -11.5000 24° Northeast 445 512 33,000  Level FlightAware
20:05 25.8427 -12.3627 24° Northeast  Level Estimated
20:05 25.4160 -11.4690 20° North 445 512 33,000  Level FlightAware
20:05 25.4830 -11.4400 21° North 445 512 33,000  Level FlightAware
20:06 25.5650 -11.4070 20° North 445 512 33,000  Level FlightAware
20:07 25.6660 -11.3640 21° North 33,000  Level FlightAware
20:09 25.8778 -11.2702 22° Northeast  Level Estimated
20:09 25.9440 -11.2480 22° Northeast 447 514 33,000  Level FlightAware
20:10 26.0100 -11.2210 20° North 447 514 33,000  Level FlightAware
20:10 26.0760 -11.1940 20° North 447 514 33,000  Level FlightAware
20:11 26.1420 -11.1670 20° North 447 514 33,000 -60 Level FlightAware
20:14 26.4292 -11.0384 22° Northeast  Level Estimated
20:15 26.5426 -10.9874 22° Northeast  Level Estimated
20:16 26.6559 -10.9363 22° Northeast  Level Estimated
20:17 26.7692 -10.8852 22° Northeast  Level Estimated
20:18 26.8825 -10.8339 22° Northeast  Level Estimated
20:19 26.9958 -10.7825 22° Northeast  Level Estimated
20:20 27.1090 -10.7311 22° Northeast  Level Estimated
20:21 27.2222 -10.6795 22° Northeast  Level Estimated
20:22 27.3354 -10.6278 22° Northeast  Level Estimated
20:23 27.4487 -10.5760 22° Northeast  Level Estimated
20:24 27.5618 -10.5241 22° Northeast  Level Estimated
20:25 27.6750 -10.4721 22° Northeast  Level Estimated
20:26 27.7881 -10.4200 22° Northeast  Level Estimated
20:27 27.9013 -10.3678 22° Northeast  Level Estimated
20:28 28.0144 -10.3155 22° Northeast  Level Estimated
20:29 28.1274 -10.2631 22° Northeast  Level Estimated
20:30 28.2405 -10.2105 22° Northeast  Level Estimated
20:31 28.3535 -10.1579 22° Northeast  Level Estimated
20:32 28.4666 -10.1051 22° Northeast  Level Estimated
20:33 28.5795 -10.0522 22° Northeast  Level Estimated
20:34 28.6925 -9.9992 22° Northeast  Level Estimated
20:35 28.8055 -9.9461 22° Northeast  Level Estimated
20:36 28.9184 -9.8929 22° Northeast  Level Estimated
20:37 29.0313 -9.8396 22° Northeast  Level Estimated
20:38 29.1442 -9.7861 22° Northeast  Level Estimated
20:39 29.2571 -9.7325 22° Northeast  Level Estimated
20:40 29.3699 -9.6789 23° Northeast  Level Estimated
20:41 29.4828 -9.6250 23° Northeast  Level Estimated
20:42 29.5956 -9.5711 23° Northeast  Level Estimated
20:43 29.7084 -9.5171 23° Northeast  Level Estimated
20:44 29.8211 -9.4629 23° Northeast  Level Estimated
20:45 29.9339 -9.4086 23° Northeast  Level Estimated
20:46 30.0466 -9.3542 23° Northeast  Level Estimated
20:47 30.1593 -9.2996 23° Northeast  Level Estimated
20:48 30.2720 -9.2450 23° Northeast  Level Estimated
20:49 30.3846 -9.1902 23° Northeast  Level Estimated
20:50 30.4972 -9.1353 23° Northeast  Level Estimated
20:51 30.6098 -9.0802 23° Northeast  Level Estimated
20:52 30.7224 -9.0250 23° Northeast  Level Estimated
20:53 30.8350 -8.9697 23° Northeast  Level Estimated
20:54 30.9475 -8.9143 23° Northeast  Level Estimated
20:55 31.0600 -8.8587 23° Northeast  Level Estimated
20:56 31.1725 -8.8030 23° Northeast  Level Estimated
20:57 31.2850 -8.7472 23° Northeast  Level Estimated
20:58 31.3974 -8.6912 23° Northeast  Level Estimated
20:59 31.5098 -8.6351 23° Northeast  Level Estimated
21:00 31.6222 -8.5789 23° Northeast  Level Estimated
21:01 31.7346 -8.5225 23° Northeast  Level Estimated
21:02 31.8469 -8.4660 23° Northeast  Level Estimated
21:03 31.9592 -8.4094 23° Northeast  Level Estimated
21:04 32.0715 -8.3526 23° Northeast  Level Estimated
21:05 32.1838 -8.2957 23° Northeast  Level Estimated
21:06 32.2960 -8.2386 23° Northeast  Level Estimated
21:07 32.4082 -8.1814 23° Northeast  Level Estimated
21:08 32.5204 -8.1241 23° Northeast  Level Estimated
21:09 32.6326 -8.0666 23° Northeast  Level Estimated
21:10 32.7447 -8.0089 23° Northeast  Level Estimated
21:11 32.8568 -7.9511 23° Northeast  Level Estimated
21:12 32.9689 -7.8932 23° Northeast  Level Estimated
21:13 33.0810 -7.8351 23° Northeast  Level Estimated
21:14 33.1930 -7.7769 24° Northeast  Level Estimated
21:15 33.3050 -7.7186 24° Northeast  Level Estimated
21:16 33.4170 -7.6600 24° Northeast  Level Estimated
21:17 33.5289 -7.6014 24° Northeast  Level Estimated
21:18 33.6409 -7.5426 24° Northeast  Level Estimated
21:19 33.7528 -7.4836 24° Northeast  Level Estimated
21:20 33.8646 -7.4244 24° Northeast  Level Estimated
21:21 33.9764 -7.3651 24° Northeast  Level Estimated
21:22 34.0882 -7.3057 24° Northeast  Level Estimated
21:23 34.2000 -7.2461 24° Northeast  Level Estimated
21:24 34.3118 -7.1863 24° Northeast  Level Estimated
21:25 34.4235 -7.1264 24° Northeast  Level Estimated
21:26 34.5352 -7.0663 24° Northeast  Level Estimated
21:26 34.5630 -7.0320 24° Northeast 439 505 32,000  Level FlightAware
21:27 34.6469 -7.0061 24° Northeast  Level Estimated
21:27 34.6450 -6.9860 25° Northeast 440 506 32,000  Level FlightAware
21:28 34.7240 -6.9420 25° Northeast 440 506 32,000  Level FlightAware
21:28 34.8070 -6.8950 25° Northeast 441 507 32,000  Level FlightAware
21:29 34.8820 -6.8530 25° Northeast 440 506 32,000  Level FlightAware
21:30 34.9570 -6.8110 25° Northeast 441 507 32,000  Level FlightAware
21:30 35.0390 -6.7640 25° Northeast 441 507 32,000  Level FlightAware
21:31 35.1130 -6.7220 25° Northeast 441 507 32,000  Level FlightAware
21:32 35.1980 -6.6750 24° Northeast 439 505 32,000  Level FlightAware
21:33 35.2710 -6.6330 25° Northeast 440 506 32,000  Level FlightAware
21:33 35.3450 -6.5910 25° Northeast 441 507 32,000  Level FlightAware
21:34 35.4300 -6.5420 25° Northeast 442 509 32,000  Level FlightAware
21:35 35.5030 -6.5000 25° Northeast 443 510 32,000  Level FlightAware
21:35 35.5880 -6.4520 25° Northeast 443 510 32,000  Level FlightAware
21:36 35.6620 -6.4090 25° Northeast 444 511 32,000  Level FlightAware
21:37 35.7460 -6.3610 25° Northeast 445 512 32,000  Level FlightAware
21:37 35.8210 -6.3170 25° Northeast 438 504 32,000  Level FlightAware
21:38 35.8910 -6.2630 32° Northeast 448 516 32,000  Level FlightAware
21:39 35.9690 -6.1990 34° Northeast 449 517 32,000  Level FlightAware
21:40 36.0380 -6.1430 33° Northeast 449 517 32,000  Level FlightAware
21:40 36.1160 -6.0780 34° Northeast 450 518 32,000  Level FlightAware
21:41 36.1870 -6.0240 32° Northeast 450 518 32,000  Level FlightAware
21:42 36.2630 -5.9840 23° Northeast 446 513 32,000  Level FlightAware
21:42 36.3520 -5.9550 15° North 445 512 32,000  Level FlightAware
21:43 36.4330 -5.9310 13° North 445 512 32,000  Level FlightAware
21:44 36.5130 -5.9070 14° North 446 513 32,000  Level FlightAware
21:44 36.6040 -5.8800 13° North 448 516 32,000  Level FlightAware
21:45 36.6850 -5.8560 13° North 449 517 32,000  Level FlightAware
21:46 36.7760 -5.8290 13° North 449 517 32,000  Level FlightAware
21:47 36.8570 -5.8050 13° North 450 518 32,000  Level FlightAware
21:47 36.9380 -5.7810 13° North 450 518 32,000  Level FlightAware
21:48 37.0300 -5.7540 13° North 443 510 32,000  Level FlightAware
21:49 37.1110 -5.7290 14° North 443 510 32,000  Level FlightAware
21:49 37.2030 -5.7020 13° North 443 510 32,000  Level FlightAware
21:50 37.2840 -5.6780 13° North 443 510 32,000  Level FlightAware
21:51 37.3760 -5.6500 14° North 443 510 32,000  Level FlightAware
21:51 37.4570 -5.6260 13° North 444 511 32,000  Level FlightAware
21:52 37.5390 -5.6010 14° North 444 511 32,000  Level FlightAware
21:53 37.6310 -5.5730 14° North 446 513 32,000  Level FlightAware
21:54 37.7130 -5.5480 14° North 446 513 32,000  Level FlightAware
21:54 37.7930 -5.5240 13° North 448 516 32,000  Level FlightAware
21:55 37.8870 -5.4950 14° North 447 514 32,000  Level FlightAware
21:56 37.9700 -5.4700 13° North 449 517 32,000  Level FlightAware
21:56 38.0620 -5.4420 13° North 449 517 32,000  Level FlightAware
21:57 38.1440 -5.4160 14° North 450 518 32,000  Level FlightAware
21:58 38.2270 -5.3910 13° North 451 519 32,000  Level FlightAware
21:58 38.3190 -5.3620 14° North 460 529 32,000  Level FlightAware
21:59 38.3890 -5.3410 13° North 460 529 32,000  Level FlightAware
22:00 38.4820 -5.3120 14° North 460 529 32,000  Level FlightAware
22:00 38.5690 -5.2850 14° North 461 531 32,000  Level FlightAware
22:01 38.6730 -5.2520 14° North 461 531 32,000  Level FlightAware
22:02 38.7560 -5.2260 14° North 462 532 32,000  Level FlightAware
22:03 38.8380 -5.1900 19° North 468 539 32,000 -300 Level FlightAware
22:03 38.9280 -5.1300 27° Northeast 474 545 31,600 -960 Descending FlightAware
22:04 38.9990 -5.0640 36° Northeast 480 552 30,700 -1,740 Descending FlightAware
22:05 39.0720 -4.9750 43° Northeast 487 560 29,200 -1,860 Descending FlightAware
22:05 39.1260 -4.8850 52° Northeast 490 564 28,100 -2,100 Descending FlightAware
22:06 39.1810 -4.7730 58° Northeast 478 550 26,300 -2,280 Descending FlightAware
22:07 39.2380 -4.6880 49° Northeast 462 532 24,900 -2,220 Descending FlightAware
22:08 39.2970 -4.6120 45° Northeast 452 520 23,400 -2,220 Descending FlightAware
22:08 39.3620 -4.5270 45° Northeast 441 507 21,800 -2,100 Descending FlightAware
22:09 39.4170 -4.4550 45° Northeast 430 495 20,500 -1,620 Descending FlightAware
22:10 39.4720 -4.3830 45° Northeast 410 472 19,700 -1,140 Descending FlightAware
22:10 39.5350 -4.3020 45° Northeast 409 471 18,900 -1,020 Descending FlightAware
22:11 39.5870 -4.2340 45° Northeast 405 466 18,300 -1,440 Descending FlightAware
22:12 39.6460 -4.1560 45° Northeast 402 463 16,900 -1,920 Descending FlightAware
22:12 39.6970 -4.0880 46° Northeast 396 456 15,600 -1,920 Descending FlightAware
22:13 39.7560 -4.0120 45° Northeast 390 449 14,200 -1,920 Descending FlightAware
22:14 39.8060 -3.9450 46° Northeast 384 442 12,900 -1,980 Descending FlightAware
22:15 39.8560 -3.8790 45° Northeast 379 436 11,600 -1,740 Descending FlightAware
22:15 39.9090 -3.8090 45° Northeast 364 419 10,500 -1,140 Descending FlightAware
22:16 39.9540 -3.7480 46° Northeast 332 382 10,000 -780 Descending FlightAware
22:16 39.9860 -3.7060 45° Northeast 313 360 9,600 -1,140 Descending FlightAware
22:17 40.0120 -3.6710 46° Northeast 306 352 9,000 -1,560 Descending FlightAware
22:17 40.0410 -3.6320 46° Northeast 304 350 8,200 -1,560 Descending FlightAware
22:18 40.0650 -3.6010 45° Northeast 303 349 7,600 -1,440 Descending FlightAware
22:18 40.0940 -3.5610 47° Northeast 299 344 6,900 -1,200 Descending FlightAware
22:19 40.1220 -3.5240 45° Northeast 288 331 6,400 -1,020 Descending FlightAware
22:19 40.1460 -3.4920 46° Northeast 273 314 6,000 -1,020 Descending FlightAware
22:20 40.1730 -3.4560 46° Northeast 260 299 5,500 -1,020 Descending FlightAware
22:20 40.1970 -3.4230 46° Northeast 253 291 5,000 -660 Descending FlightAware
22:21 40.2160 -3.3970 46° Northeast 251 289 4,900 -120 Descending FlightAware
22:21 40.2400 -3.3660 45° Northeast 250 288 4,900  Level FlightAware
22:22 40.2650 -3.3410 37° Northeast 244 281 4,900  Level FlightAware
22:22 40.2950 -3.3560 339° North 233 268 4,900  Level FlightAware
22:23 40.3200 -3.3810 323° Northwest 217 250 4,900  Level FlightAware
22:23 40.3380 -3.3990 323° Northwest 211 243 4,900 -480 Level FlightAware
22:23 40.3610 -3.4220 323° Northwest 194 223 4,500 -900 Descending FlightAware
22:24 40.3790 -3.4400 323° Northwest 184 212 4,100 -900 Descending FlightAware
22:24 40.3880 -3.4500 320° Northwest 179 206 3,900 -960 Descending FlightAware
22:25 40.4070 -3.4690 323° Northwest 168 193 3,400 -1,020 Descending FlightAware
22:25 40.4230 -3.4850 323° Northwest 160 184 3,000 -780 Descending FlightAware
22:26 40.4390 -3.5020 321° Northwest 149 171 2,700 -840 Descending FlightAware
22:26 40.4560 -3.5180 324° Northwest 141 162 2,200 -900 Descending FlightAware
22:26 40.4690 -3.5310 323° Northwest 141 162 1,900 -720 Descending FlightAware